Buntingford, United Kingdom
Current Conditions -  °F | °C
As of 6:20 AM on Wednesday 26 Nov 2014 (Local Time) from EGSS Reporting Station
Drizzle Drizzle  
Wind Chill:   Ceiling: 200
Heat Index:   Visibility: 1mi
Dew Point:   Wind: 6mph
Humidity: 100%   Direction: 60°ENE
Pressure: 29.88"   Gusts: NA
Location:  51.95°N, 0.02°W
Report Text: EGSS 260620Z AUTO 06005KT 1700 DZ OVC002/// //////TCU 07/07 Q1012
Loading
Personal Weather Stations






























Interactive Weather Map New forecast layout! Learn more

10-Day Weather Forecast

Advertisements
Track Severe Weather on mobile